createdAt,value
2022-11-29T00:01:42.713Z,101256.63
2022-11-29T00:04:11.454Z,101259.28
2022-11-29T00:06:40.940Z,101250.69
2022-11-29T00:09:12.247Z,101250.91
2022-11-29T00:12:00.437Z,101260.00
2022-11-29T00:14:29.553Z,101252.91
2022-11-29T00:17:01.988Z,101265.03
2022-11-29T00:19:32.293Z,101262.69
2022-11-29T00:22:01.151Z,101264.03
2022-11-29T00:24:31.678Z,101268.41
2022-11-29T00:27:00.604Z,101278.50
2022-11-29T00:29:29.981Z,101273.63
2022-11-29T00:31:59.749Z,101265.38
2022-11-29T00:34:28.799Z,101269.09
2022-11-29T00:36:57.410Z,101275.44
2022-11-29T00:39:25.959Z,101275.63
2022-11-29T00:41:54.817Z,101269.59
2022-11-29T00:44:23.198Z,101270.25
2022-11-29T00:46:51.606Z,101271.41
2022-11-29T00:49:20.077Z,101273.63
2022-11-29T00:51:48.501Z,101262.34
2022-11-29T00:54:17.031Z,101270.78
2022-11-29T00:56:45.442Z,101263.34
2022-11-29T00:59:13.833Z,101265.19
2022-11-29T01:01:42.295Z,101266.72
2022-11-29T01:04:10.696Z,101264.16
2022-11-29T01:06:39.220Z,101258.13
2022-11-29T01:09:07.626Z,101254.06
2022-11-29T01:11:36.067Z,101266.06
2022-11-29T01:14:04.541Z,101270.75
2022-11-29T01:16:33.755Z,101272.75
2022-11-29T01:19:02.612Z,101279.84
2022-11-29T01:21:30.970Z,101282.06
2022-11-29T01:24:00.806Z,101275.97
2022-11-29T01:26:31.177Z,101280.03
2022-11-29T01:28:59.756Z,101279.84
2022-11-29T01:31:31.341Z,101282.72
2022-11-29T01:34:02.479Z,101279.69
2022-11-29T01:36:31.573Z,101283.56
2022-11-29T01:39:01.644Z,101290.97
2022-11-29T01:41:32.454Z,101285.56
2022-11-29T01:44:26.897Z,101286.44
2022-11-29T01:46:56.739Z,101294.47
2022-11-29T01:49:47.308Z,101297.69
2022-11-29T01:52:19.200Z,101296.53
2022-11-29T01:54:50.834Z,101294.31
2022-11-29T01:57:20.286Z,101301.41
2022-11-29T01:59:52.402Z,101312.16
2022-11-29T02:02:24.593Z,101314.53
2022-11-29T02:04:53.143Z,101314.50
2022-11-29T02:07:21.648Z,101312.81
2022-11-29T02:09:50.024Z,101317.22
2022-11-29T02:12:33.655Z,101320.88
2022-11-29T02:15:24.472Z,101320.22
2022-11-29T02:18:21.013Z,101323.09
2022-11-29T02:21:02.413Z,101325.94
2022-11-29T02:23:45.959Z,101332.00
2022-11-29T02:26:33.109Z,101329.69
2022-11-29T02:29:31.683Z,101337.88
2022-11-29T02:32:21.795Z,101330.44
2022-11-29T02:34:56.900Z,101329.94
2022-11-29T02:37:56.797Z,101331.28
2022-11-29T02:40:39.272Z,101329.28
2022-11-29T02:43:16.777Z,101335.34
2022-11-29T02:46:03.974Z,101320.19
2022-11-29T02:48:52.391Z,101337.69
2022-11-29T02:51:32.666Z,101334.69
2022-11-29T02:54:16.763Z,101334.69
2022-11-29T02:56:58.889Z,101323.03
2022-11-29T03:00:03.802Z,101336.63
2022-11-29T03:02:54.093Z,101332.69
2022-11-29T03:05:47.058Z,101336.22
2022-11-29T03:08:34.042Z,101344.66
2022-11-29T03:11:22.011Z,101344.84
2022-11-29T03:14:06.517Z,101347.56
2022-11-29T03:16:54.584Z,101357.50
2022-11-29T03:19:53.399Z,101353.84
2022-11-29T03:22:40.734Z,101362.41
2022-11-29T03:25:17.702Z,101363.00
2022-11-29T03:27:50.207Z,101366.91
2022-11-29T03:30:19.938Z,101365.38
2022-11-29T03:33:07.952Z,101366.25
2022-11-29T03:36:14.877Z,101372.75
2022-11-29T03:38:46.414Z,101374.59
2022-11-29T03:41:23.490Z,101371.63
2022-11-29T03:44:12.058Z,101371.19
2022-11-29T03:46:54.609Z,101387.78
2022-11-29T03:49:31.008Z,101384.19
2022-11-29T03:52:35.721Z,101387.31
2022-11-29T03:55:30.904Z,101386.22
2022-11-29T03:58:20.294Z,101380.56
2022-11-29T04:00:48.643Z,101389.66
2022-11-29T04:03:20.031Z,101388.41
2022-11-29T04:06:10.820Z,101391.84
2022-11-29T04:09:00.262Z,101389.53
2022-11-29T04:11:59.839Z,101397.88
2022-11-29T04:14:54.565Z,101393.47
2022-11-29T04:17:41.439Z,101403.56
2022-11-29T04:20:29.601Z,101391.19
2022-11-29T04:23:22.986Z,101402.28
2022-11-29T04:26:12.946Z,101396.16
2022-11-29T04:29:03.600Z,101415.03
2022-11-29T04:32:00.009Z,101409.13
2022-11-29T04:34:53.788Z,101404.81
2022-11-29T04:37:47.045Z,101412.31
2022-11-29T04:40:24.441Z,101403.94
2022-11-29T04:43:11.334Z,101412.72
2022-11-29T04:45:59.371Z,101412.25
2022-11-29T04:48:37.396Z,101407.75
2022-11-29T04:51:30.209Z,101411.81
2022-11-29T04:54:15.482Z,101422.69
2022-11-29T04:56:50.772Z,101434.00
2022-11-29T04:59:40.726Z,101432.56
2022-11-29T05:02:37.376Z,101433.81
2022-11-29T05:05:41.092Z,101432.69
2022-11-29T05:08:27.145Z,101437.34
2022-11-29T05:11:34.300Z,101436.75
2022-11-29T05:14:51.083Z,101446.00
2022-11-29T05:17:38.326Z,101445.72
2022-11-29T05:20:31.723Z,101453.97
2022-11-29T05:23:34.360Z,101449.88
2022-11-29T05:26:15.872Z,101455.19
2022-11-29T05:28:57.476Z,101460.84
2022-11-29T05:31:58.637Z,101466.09
2022-11-29T05:34:54.620Z,101468.84
2022-11-29T05:37:44.943Z,101471.06
2022-11-29T05:40:13.289Z,101472.63
2022-11-29T05:42:59.479Z,101477.63
2022-11-29T05:45:35.462Z,101476.19
2022-11-29T05:48:25.329Z,101489.72
2022-11-29T05:51:37.098Z,101490.97
2022-11-29T05:54:08.383Z,101491.59
2022-11-29T05:56:48.342Z,101494.66
2022-11-29T05:59:24.565Z,101491.41
2022-11-29T06:02:09.522Z,101504.91
2022-11-29T06:04:57.242Z,101499.47
2022-11-29T06:07:58.967Z,101503.31
2022-11-29T06:10:39.878Z,101508.31
2022-11-29T06:13:26.528Z,101519.66
2022-11-29T06:16:22.939Z,101516.91
2022-11-29T06:19:19.267Z,101528.34
2022-11-29T06:22:24.316Z,101534.94
2022-11-29T06:25:11.650Z,101546.06
2022-11-29T06:28:18.192Z,101549.56
2022-11-29T06:31:03.379Z,101552.22
2022-11-29T06:33:44.501Z,101557.31
2022-11-29T06:36:25.145Z,101559.66
2022-11-29T06:38:53.842Z,101556.53
2022-11-29T06:41:24.190Z,101567.22
2022-11-29T06:43:53.032Z,101562.19
2022-11-29T06:46:47.915Z,101568.72
2022-11-29T06:49:41.120Z,101563.34
2022-11-29T06:52:23.019Z,101571.50
2022-11-29T06:55:06.154Z,101583.31
2022-11-29T06:57:46.820Z,101576.72
2022-11-29T07:00:20.356Z,101571.78
2022-11-29T07:02:51.668Z,101577.31
2022-11-29T07:05:34.609Z,101581.00
2022-11-29T07:08:06.724Z,101589.38
2022-11-29T07:10:37.665Z,101585.69
2022-11-29T07:13:06.681Z,101596.81
2022-11-29T07:15:37.464Z,101592.97
2022-11-29T07:18:51.055Z,101589.41
2022-11-29T07:21:44.212Z,101600.00
2022-11-29T07:24:27.950Z,101596.75
2022-11-29T07:27:05.403Z,101603.59
2022-11-29T07:29:57.166Z,101600.84
2022-11-29T07:33:08.109Z,101608.50
2022-11-29T07:35:55.362Z,101616.66
2022-11-29T07:38:55.887Z,101620.41
2022-11-29T07:41:36.597Z,101628.09
2022-11-29T07:44:30.203Z,101624.09
2022-11-29T07:46:58.767Z,101630.41
2022-11-29T07:49:27.326Z,101635.38
2022-11-29T07:51:56.014Z,101634.78
2022-11-29T07:54:24.689Z,101628.75
2022-11-29T07:56:53.122Z,101629.22
2022-11-29T07:59:21.762Z,101633.25
2022-11-29T08:01:50.211Z,101632.66
2022-11-29T08:04:18.693Z,101637.84
2022-11-29T08:06:47.170Z,101646.63
2022-11-29T08:09:15.710Z,101639.84
2022-11-29T08:11:44.853Z,101644.69
2022-11-29T08:14:13.243Z,101639.25
2022-11-29T08:16:41.867Z,101647.41
2022-11-29T08:19:10.392Z,101645.16
2022-11-29T08:21:38.845Z,101646.28
2022-11-29T08:24:07.376Z,101643.69
2022-11-29T08:26:35.847Z,101656.13
2022-11-29T08:29:04.369Z,101648.94
2022-11-29T08:31:32.937Z,101656.22
2022-11-29T08:34:01.826Z,101659.66
2022-11-29T08:36:30.491Z,101664.59
2022-11-29T08:39:05.997Z,101665.94
2022-11-29T08:41:37.493Z,101677.28
2022-11-29T08:44:06.449Z,101672.28
2022-11-29T08:46:53.846Z,101673.69
2022-11-29T08:49:22.295Z,101672.44
2022-11-29T08:52:13.474Z,101673.28
2022-11-29T08:54:41.962Z,101672.75
2022-11-29T08:57:38.396Z,101676.97
2022-11-29T08:59:59.596Z,101680.88
2022-11-29T09:02:28.121Z,101680.97
2022-11-29T09:04:56.847Z,101688.75
2022-11-29T09:07:25.320Z,101680.06
2022-11-29T09:09:53.814Z,101680.28
2022-11-29T09:12:22.354Z,101688.78
2022-11-29T09:14:50.746Z,101689.91
2022-11-29T09:17:19.124Z,101691.03
2022-11-29T09:19:47.557Z,101693.84
2022-11-29T09:22:15.974Z,101690.63
2022-11-29T09:24:46.474Z,101697.94
2022-11-29T09:27:15.154Z,101702.06
2022-11-29T09:29:43.639Z,101704.81
2022-11-29T09:32:12.022Z,101705.03
2022-11-29T09:34:42.189Z,101705.56
2022-11-29T09:37:10.837Z,101708.56
2022-11-29T09:39:41.536Z,101711.47
2022-11-29T09:42:23.908Z,101714.41
2022-11-29T09:45:10.702Z,101714.94
2022-11-29T09:48:16.159Z,101719.44
2022-11-29T09:51:23.470Z,101721.50
2022-11-29T09:54:10.579Z,101727.22
2022-11-29T09:56:46.974Z,101722.22
2022-11-29T09:59:32.750Z,101730.50
2022-11-29T10:02:15.871Z,101726.47
2022-11-29T10:04:53.496Z,101726.41
2022-11-29T10:07:30.814Z,101731.91
2022-11-29T10:10:33.377Z,101741.28
2022-11-29T10:13:23.814Z,101732.19
2022-11-29T10:16:04.360Z,101730.53
2022-11-29T10:18:44.030Z,101738.03
2022-11-29T10:21:25.549Z,101733.31
2022-11-29T10:24:01.435Z,101729.81
2022-11-29T10:26:34.984Z,101740.97
2022-11-29T10:29:04.980Z,101734.78
2022-11-29T10:31:37.762Z,101734.03
2022-11-29T10:34:32.521Z,101737.47
2022-11-29T10:37:02.695Z,101726.06
2022-11-29T10:39:49.003Z,101722.25
2022-11-29T10:42:41.877Z,101730.03
2022-11-29T10:45:30.708Z,101728.63
2022-11-29T10:48:04.991Z,101731.56
2022-11-29T10:50:36.224Z,101729.97
2022-11-29T10:53:14.331Z,101736.03
2022-11-29T10:56:02.485Z,101739.09
2022-11-29T10:58:31.834Z,101736.41
2022-11-29T11:01:02.267Z,101734.47
2022-11-29T11:03:38.510Z,101736.47
2022-11-29T11:06:19.358Z,101733.69
2022-11-29T11:08:52.048Z,101741.34
2022-11-29T11:11:39.372Z,101740.81
2022-11-29T11:14:27.364Z,101740.22
2022-11-29T11:16:56.315Z,101735.91
2022-11-29T11:19:32.090Z,101728.03
2022-11-29T11:22:03.946Z,101733.50
2022-11-29T11:24:37.479Z,101734.41
2022-11-29T11:27:06.132Z,101739.06
2022-11-29T11:29:39.342Z,101751.47
2022-11-29T11:32:17.033Z,101742.09
2022-11-29T11:34:57.215Z,101752.47
2022-11-29T11:37:28.726Z,101746.66
2022-11-29T11:40:00.225Z,101750.84
2022-11-29T11:42:40.367Z,101747.31
2022-11-29T11:45:22.912Z,101746.84
2022-11-29T11:47:53.890Z,101751.13
2022-11-29T11:50:25.289Z,101752.22
2022-11-29T11:52:57.371Z,101763.84
2022-11-29T11:55:33.482Z,101769.88
2022-11-29T11:58:09.774Z,101776.91
2022-11-29T12:01:08.121Z,101775.63
2022-11-29T12:03:48.435Z,101774.59
2022-11-29T12:06:37.336Z,101776.72
2022-11-29T12:09:46.299Z,101784.03
2022-11-29T12:12:26.049Z,101787.41
2022-11-29T12:15:21.914Z,101791.00
2022-11-29T12:18:24.635Z,101791.28
2022-11-29T12:20:53.169Z,101800.84
2022-11-29T12:23:35.336Z,101802.78
2022-11-29T12:26:55.222Z,101798.94
2022-11-29T12:29:16.627Z,101799.44
2022-11-29T12:32:00.314Z,101810.16
2022-11-29T12:35:07.215Z,101810.75
2022-11-29T12:37:48.356Z,101808.56
2022-11-29T12:40:54.497Z,101815.94
2022-11-29T12:44:07.960Z,101811.47
2022-11-29T12:46:38.155Z,101814.75
2022-11-29T12:49:15.742Z,101822.47
2022-11-29T12:51:54.253Z,101822.97
2022-11-29T12:54:56.936Z,101821.59
2022-11-29T12:57:30.430Z,101820.13
2022-11-29T13:00:21.035Z,101816.13
2022-11-29T13:03:14.539Z,101825.66
2022-11-29T13:06:37.372Z,101820.28
2022-11-29T13:09:24.418Z,101822.56
2022-11-29T13:11:58.360Z,101824.66
2022-11-29T13:14:44.510Z,101818.97
2022-11-29T13:17:48.628Z,101820.66
2022-11-29T13:20:39.231Z,101821.81
2022-11-29T13:24:07.492Z,101829.31
2022-11-29T13:26:30.536Z,101830.78
2022-11-29T13:29:01.136Z,101819.69
2022-11-29T13:31:30.443Z,101825.50
2022-11-29T13:34:01.877Z,101829.47
2022-11-29T13:36:59.796Z,101830.88
2022-11-29T13:39:46.509Z,101833.94
2022-11-29T13:42:36.779Z,101843.72
2022-11-29T13:45:26.977Z,101839.31
2022-11-29T13:48:00.635Z,101841.72
2022-11-29T13:50:35.092Z,101840.00
2022-11-29T13:53:11.679Z,101850.19
2022-11-29T13:55:49.549Z,101846.66
2022-11-29T13:58:18.527Z,101843.22
2022-11-29T14:00:49.783Z,101844.34
2022-11-29T14:03:24.139Z,101840.69
2022-11-29T14:06:22.198Z,101850.19
2022-11-29T14:09:18.984Z,101846.53
2022-11-29T14:11:51.228Z,101846.34
2022-11-29T14:14:25.943Z,101848.69
2022-11-29T14:17:01.229Z,101847.78
2022-11-29T14:19:34.531Z,101849.41
2022-11-29T14:22:03.011Z,101845.19
2022-11-29T14:24:35.356Z,101848.34
2022-11-29T14:27:06.959Z,101855.09
2022-11-29T14:29:47.330Z,101855.81
2022-11-29T14:32:46.209Z,101864.50
2022-11-29T14:35:32.347Z,101860.63
2022-11-29T14:38:23.082Z,101865.34
2022-11-29T14:41:06.432Z,101862.13
2022-11-29T14:43:41.587Z,101864.03
2022-11-29T14:46:16.129Z,101863.28
2022-11-29T14:48:58.811Z,101870.94
2022-11-29T14:51:35.999Z,101872.50
2022-11-29T14:54:15.414Z,101873.50
2022-11-29T14:56:45.489Z,101871.75
2022-11-29T14:59:42.568Z,101875.50
2022-11-29T15:02:26.923Z,101869.66
2022-11-29T15:04:57.390Z,101873.56
2022-11-29T15:07:31.868Z,101873.88
2022-11-29T15:10:04.812Z,101875.34
2022-11-29T15:12:37.489Z,101874.81
2022-11-29T15:15:18.081Z,101876.19
2022-11-29T15:18:18.912Z,101884.19
2022-11-29T15:21:03.729Z,101885.94
2022-11-29T15:23:41.773Z,101880.19
2022-11-29T15:26:28.338Z,101881.25
2022-11-29T15:29:18.205Z,101886.34
2022-11-29T15:31:52.273Z,101882.31
2022-11-29T15:34:43.467Z,101884.41
2022-11-29T15:37:23.082Z,101883.97
2022-11-29T15:40:05.863Z,101886.25
2022-11-29T15:42:44.693Z,101894.72
2022-11-29T15:45:38.199Z,101888.66
2022-11-29T15:48:20.764Z,101899.50
2022-11-29T15:51:15.649Z,101885.97
2022-11-29T15:54:12.057Z,101884.50
2022-11-29T15:57:04.089Z,101891.66
2022-11-29T16:00:10.771Z,101896.41
2022-11-29T16:02:48.073Z,101893.25
2022-11-29T16:05:22.439Z,101891.56
2022-11-29T16:07:54.637Z,101901.22
2022-11-29T16:10:33.573Z,101902.63
2022-11-29T16:13:31.378Z,101908.72
2022-11-29T16:16:11.836Z,101908.66
2022-11-29T16:18:42.391Z,101899.75
2022-11-29T16:21:29.442Z,101898.75
2022-11-29T16:23:58.891Z,101892.19
2022-11-29T16:26:34.418Z,101901.38
2022-11-29T16:29:03.514Z,101890.09
2022-11-29T16:31:35.074Z,101890.13
2022-11-29T16:34:09.179Z,101890.66
2022-11-29T16:36:37.661Z,101898.34
2022-11-29T16:39:16.646Z,101903.38
2022-11-29T16:42:02.550Z,101909.50
2022-11-29T16:44:40.032Z,101913.25
2022-11-29T16:47:29.860Z,101918.28
2022-11-29T16:50:19.087Z,101921.53
2022-11-29T16:52:52.018Z,101922.75
2022-11-29T16:55:23.865Z,101923.03
2022-11-29T16:57:52.488Z,101924.91
2022-11-29T17:00:30.537Z,101921.53
2022-11-29T17:02:59.579Z,101924.59
2022-11-29T17:05:28.205Z,101927.91
2022-11-29T17:07:56.801Z,101923.28
2022-11-29T17:10:25.724Z,101930.38
2022-11-29T17:12:54.194Z,101931.03
2022-11-29T17:15:22.610Z,101931.59
2022-11-29T17:17:50.934Z,101931.69
2022-11-29T17:20:19.360Z,101928.31
2022-11-29T17:22:47.796Z,101928.34
2022-11-29T17:25:16.269Z,101925.44
2022-11-29T17:27:44.748Z,101924.56
2022-11-29T17:30:13.646Z,101928.03
2022-11-29T17:32:42.070Z,101937.19
2022-11-29T17:35:10.524Z,101934.13
2022-11-29T17:37:38.832Z,101945.94
2022-11-29T17:40:08.075Z,101946.41
2022-11-29T17:42:36.514Z,101946.97
2022-11-29T17:45:05.235Z,101952.34
2022-11-29T17:47:33.594Z,101955.06
2022-11-29T17:50:02.068Z,101947.50
2022-11-29T17:52:31.387Z,101948.59
2022-11-29T17:54:59.863Z,101950.91
2022-11-29T17:57:28.307Z,101954.84
2022-11-29T17:59:56.691Z,101945.22
2022-11-29T18:02:25.188Z,101948.06
2022-11-29T18:04:53.654Z,101958.94
2022-11-29T18:07:22.126Z,101954.38
2022-11-29T18:09:51.012Z,101959.75
2022-11-29T18:12:20.115Z,101953.69
2022-11-29T18:14:50.727Z,101965.75
2022-11-29T18:17:19.161Z,101959.84
2022-11-29T18:19:47.827Z,101961.78
2022-11-29T18:22:16.563Z,101976.44
2022-11-29T18:24:44.995Z,101976.69
2022-11-29T18:27:13.482Z,101976.38
2022-11-29T18:29:41.848Z,101972.94
2022-11-29T18:32:10.278Z,101973.31
2022-11-29T18:34:38.723Z,101974.41
2022-11-29T18:37:12.321Z,101970.59
2022-11-29T18:39:44.339Z,101962.91
2022-11-29T18:42:13.006Z,101963.53
2022-11-29T18:44:41.425Z,101964.47
2022-11-29T18:47:09.760Z,101961.78
2022-11-29T18:49:38.187Z,101965.75
2022-11-29T18:52:06.692Z,101969.44
2022-11-29T18:54:35.229Z,101976.81
2022-11-29T18:57:03.616Z,101973.53
2022-11-29T18:59:32.023Z,101980.56
2022-11-29T19:02:00.399Z,101973.97
2022-11-29T19:04:28.790Z,101978.19
2022-11-29T19:06:57.270Z,101986.75
2022-11-29T19:09:25.811Z,102000.19
2022-11-29T19:11:54.150Z,101996.25
2022-11-29T19:14:22.507Z,101992.59
2022-11-29T19:16:50.970Z,101994.53
2022-11-29T19:19:19.392Z,101999.66
2022-11-29T19:21:48.059Z,101994.22
2022-11-29T19:24:18.403Z,101991.94
2022-11-29T19:26:48.065Z,102003.88
2022-11-29T19:29:17.252Z,102000.63
2022-11-29T19:31:45.779Z,102005.72
2022-11-29T19:34:14.219Z,102000.13
2022-11-29T19:36:43.861Z,102003.78
2022-11-29T19:39:15.209Z,102007.03
2022-11-29T19:41:46.675Z,102010.47
2022-11-29T19:44:15.181Z,102005.69
2022-11-29T19:46:46.981Z,102009.53
2022-11-29T19:49:15.463Z,102005.00
2022-11-29T19:51:43.838Z,102007.13
2022-11-29T19:54:12.328Z,102001.94
2022-11-29T19:56:40.791Z,102003.34
2022-11-29T19:59:09.275Z,102005.03
2022-11-29T20:01:41.409Z,101998.19
2022-11-29T20:04:13.116Z,102009.81
2022-11-29T20:06:41.673Z,102015.75
2022-11-29T20:09:11.702Z,102013.03
2022-11-29T20:11:40.447Z,102014.72
2022-11-29T20:14:11.374Z,102009.00
2022-11-29T20:16:40.444Z,102014.97
2022-11-29T20:19:14.330Z,102005.66
2022-11-29T20:21:45.406Z,102007.88
2022-11-29T20:24:15.329Z,102011.25
2022-11-29T20:26:46.181Z,102015.66
2022-11-29T20:29:15.846Z,102015.53
2022-11-29T20:31:50.058Z,102016.94
2022-11-29T20:34:20.335Z,102024.31
2022-11-29T20:37:07.619Z,102018.94
2022-11-29T20:39:49.804Z,102020.91
2022-11-29T20:42:31.566Z,102019.19
2022-11-29T20:45:06.368Z,102024.88
2022-11-29T20:47:37.711Z,102028.53
2022-11-29T20:50:06.998Z,102030.06
2022-11-29T20:52:48.481Z,102031.50
2022-11-29T20:55:17.142Z,102030.56
2022-11-29T20:57:45.778Z,102036.72
2022-11-29T21:00:15.879Z,102034.78
2022-11-29T21:02:44.249Z,102034.47
2022-11-29T21:05:12.780Z,102036.59
2022-11-29T21:07:41.296Z,102047.22
2022-11-29T21:10:10.174Z,102048.59
2022-11-29T21:12:39.278Z,102041.97
2022-11-29T21:15:10.472Z,102044.66
2022-11-29T21:17:40.615Z,102038.00
2022-11-29T21:20:18.059Z,102044.66
2022-11-29T21:22:53.928Z,102037.34
2022-11-29T21:25:31.600Z,102043.13
2022-11-29T21:28:00.525Z,102043.41
2022-11-29T21:30:29.152Z,102042.00
2022-11-29T21:32:57.826Z,102041.00
2022-11-29T21:35:26.280Z,102047.53
2022-11-29T21:37:58.289Z,102042.97
2022-11-29T21:40:27.296Z,102046.69
2022-11-29T21:42:56.056Z,102046.38
2022-11-29T21:45:24.497Z,102043.81
2022-11-29T21:47:52.985Z,102041.03
2022-11-29T21:50:21.417Z,102045.25
2022-11-29T21:52:52.191Z,102046.81
2022-11-29T21:55:20.553Z,102046.53
2022-11-29T21:57:48.958Z,102044.66
2022-11-29T22:00:17.770Z,102046.94
2022-11-29T22:02:46.240Z,102045.94
2022-11-29T22:05:14.805Z,102047.78
2022-11-29T22:07:43.632Z,102037.59
2022-11-29T22:10:13.668Z,102047.38
2022-11-29T22:12:51.243Z,102056.69
2022-11-29T22:15:24.498Z,102054.75
2022-11-29T22:17:53.583Z,102044.00
2022-11-29T22:20:22.487Z,102051.16
2022-11-29T22:22:54.485Z,102063.91
2022-11-29T22:25:25.691Z,102049.91
2022-11-29T22:27:54.082Z,102051.16
2022-11-29T22:30:22.501Z,102047.94
2022-11-29T22:32:50.971Z,102046.50
2022-11-29T22:35:19.330Z,102055.13
2022-11-29T22:37:47.974Z,102045.25
2022-11-29T22:40:16.941Z,102046.78
2022-11-29T22:42:45.643Z,102046.47
2022-11-29T22:45:14.186Z,102053.81
2022-11-29T22:47:42.631Z,102049.75
2022-11-29T22:50:11.339Z,102052.00
2022-11-29T22:52:39.733Z,102053.00
2022-11-29T22:55:08.521Z,102050.75
2022-11-29T22:57:36.947Z,102055.41
2022-11-29T23:00:06.110Z,102061.34
2022-11-29T23:02:34.535Z,102055.69
2022-11-29T23:05:02.953Z,102065.16
2022-11-29T23:07:31.320Z,102064.75
2022-11-29T23:09:59.667Z,102061.09
2022-11-29T23:12:28.161Z,102064.19
2022-11-29T23:14:57.129Z,102058.53
2022-11-29T23:17:25.739Z,102067.00
2022-11-29T23:19:54.128Z,102063.50
2022-11-29T23:22:22.581Z,102059.94
2022-11-29T23:24:51.022Z,102064.75
2022-11-29T23:27:19.351Z,102064.91
2022-11-29T23:29:47.695Z,102063.88
2022-11-29T23:32:16.006Z,102069.56
2022-11-29T23:34:44.673Z,102069.00
2022-11-29T23:37:13.328Z,102070.72
2022-11-29T23:39:41.745Z,102067.84
2022-11-29T23:42:10.397Z,102063.22
2022-11-29T23:44:38.740Z,102067.72
2022-11-29T23:47:07.072Z,102050.63
2022-11-29T23:49:35.684Z,102050.91
2022-11-29T23:52:04.228Z,102057.25
2022-11-29T23:54:32.653Z,102068.47
2022-11-29T23:57:01.084Z,102057.66
2022-11-29T23:59:29.481Z,102065.50
